createdAt,value
2022-10-31T00:00:10.289Z,2.87
2022-10-31T00:02:45.552Z,3.25
2022-10-31T00:05:17.980Z,2.92
2022-10-31T00:07:54.466Z,3.17
2022-10-31T00:10:26.721Z,3.38
2022-10-31T00:12:59.655Z,3.43
2022-10-31T00:15:35.072Z,3.55
2022-10-31T00:18:09.788Z,2.80
2022-10-31T00:20:41.796Z,2.85
2022-10-31T00:23:14.878Z,2.97
2022-10-31T00:25:46.766Z,3.00
2022-10-31T00:31:01.417Z,2.50
2022-10-31T00:33:37.550Z,3.42
2022-10-31T00:36:15.616Z,2.90
2022-10-31T00:38:48.977Z,3.50
2022-10-31T00:41:21.283Z,3.00
2022-10-31T00:43:53.125Z,3.13
2022-10-31T00:46:25.824Z,2.70
2022-10-31T00:48:58.119Z,2.85
2022-10-31T00:51:30.844Z,2.80
2022-10-31T00:54:04.568Z,2.90
2022-10-31T00:56:36.900Z,2.85
2022-10-31T00:59:09.594Z,3.13
2022-10-31T01:01:41.714Z,2.97
2022-10-31T01:04:14.582Z,3.43
2022-10-31T01:06:46.933Z,2.92
2022-10-31T01:09:19.787Z,3.33
2022-10-31T01:11:52.311Z,3.03
2022-10-31T01:14:25.012Z,3.50
2022-10-31T01:16:57.266Z,3.13
2022-10-31T01:19:29.954Z,3.70
2022-10-31T01:22:03.244Z,3.25
2022-10-31T01:24:35.767Z,3.33
2022-10-31T01:27:07.706Z,2.88
2022-10-31T01:29:40.048Z,2.90
2022-10-31T01:32:12.309Z,3.30
2022-10-31T01:34:44.157Z,3.47
2022-10-31T01:37:19.086Z,3.10
2022-10-31T01:39:51.405Z,3.03
2022-10-31T01:42:24.625Z,3.10
2022-10-31T01:45:02.674Z,3.22
2022-10-31T01:47:48.149Z,3.10
2022-10-31T01:50:33.214Z,2.70
2022-10-31T01:53:09.691Z,3.22
2022-10-31T01:55:46.005Z,2.90
2022-10-31T01:58:26.467Z,3.28
2022-10-31T02:01:04.867Z,2.72
2022-10-31T02:03:40.853Z,3.10
2022-10-31T02:06:34.644Z,3.15
2022-10-31T02:09:08.151Z,3.10
2022-10-31T02:11:42.808Z,3.25
2022-10-31T02:14:17.321Z,3.25
2022-10-31T02:16:50.970Z,2.88
2022-10-31T02:20:04.954Z,3.40
2022-10-31T02:23:18.441Z,3.17
2022-10-31T02:26:39.118Z,2.60
2022-10-31T02:29:17.011Z,3.28
2022-10-31T02:32:05.849Z,2.80
2022-10-31T02:34:52.291Z,3.10
2022-10-31T02:38:09.267Z,3.30
2022-10-31T02:40:46.952Z,2.95
2022-10-31T02:43:59.837Z,3.08
2022-10-31T02:46:35.658Z,3.60
2022-10-31T02:49:27.798Z,3.03
2022-10-31T02:51:59.764Z,2.93
2022-10-31T02:54:33.114Z,3.30
2022-10-31T02:57:08.399Z,2.92
2022-10-31T02:59:48.984Z,3.25
2022-10-31T03:02:50.931Z,3.10
2022-10-31T03:05:53.171Z,3.67
2022-10-31T03:08:43.772Z,3.03
2022-10-31T03:11:24.755Z,3.38
2022-10-31T03:14:13.078Z,3.00
2022-10-31T03:16:59.040Z,3.15
2022-10-31T03:19:41.699Z,3.10
2022-10-31T03:22:23.500Z,3.38
2022-10-31T03:24:58.373Z,2.90
2022-10-31T03:27:35.514Z,3.00
2022-10-31T03:30:09.496Z,3.33
2022-10-31T03:33:02.469Z,2.60
2022-10-31T03:35:37.563Z,3.03
2022-10-31T03:38:11.385Z,3.00
2022-10-31T03:40:47.234Z,3.22
2022-10-31T03:43:34.906Z,2.80
2022-10-31T03:46:07.604Z,3.53
2022-10-31T03:48:40.588Z,3.00
2022-10-31T03:51:50.794Z,3.40
2022-10-31T03:54:35.461Z,3.72
2022-10-31T03:57:34.876Z,3.75
2022-10-31T04:00:15.465Z,3.20
2022-10-31T04:03:08.254Z,3.05
2022-10-31T04:05:47.338Z,3.33
2022-10-31T04:08:26.327Z,3.53
2022-10-31T04:11:02.068Z,3.20
2022-10-31T04:13:37.229Z,3.50
2022-10-31T04:16:17.246Z,3.08
2022-10-31T04:18:50.950Z,2.95
2022-10-31T04:21:32.531Z,3.63
2022-10-31T04:24:04.868Z,3.38
2022-10-31T04:26:37.646Z,3.70
2022-10-31T04:29:10.033Z,3.60
2022-10-31T04:31:44.046Z,3.72
2022-10-31T04:34:17.278Z,4.78
2022-10-31T04:36:49.684Z,4.03
2022-10-31T04:39:26.609Z,3.15
2022-10-31T04:42:26.220Z,3.60
2022-10-31T04:44:58.634Z,3.88
2022-10-31T04:47:34.710Z,3.10
2022-10-31T04:50:08.081Z,4.35
2022-10-31T04:52:44.444Z,4.13
2022-10-31T04:55:18.459Z,3.85
2022-10-31T04:58:09.864Z,3.42
2022-10-31T05:00:42.686Z,3.88
2022-10-31T05:03:15.092Z,3.88
2022-10-31T05:05:48.423Z,4.27
2022-10-31T05:08:21.194Z,4.10
2022-10-31T05:10:59.180Z,3.88
2022-10-31T05:13:33.511Z,3.47
2022-10-31T05:16:18.922Z,3.10
2022-10-31T05:19:17.824Z,3.30
2022-10-31T05:22:16.017Z,3.53
2022-10-31T05:24:48.950Z,4.07
2022-10-31T05:27:22.275Z,3.83
2022-10-31T05:29:55.025Z,3.63
2022-10-31T05:32:28.606Z,3.53
2022-10-31T05:35:34.687Z,3.03
2022-10-31T05:38:26.923Z,3.70
2022-10-31T05:41:03.690Z,3.35
2022-10-31T05:43:38.779Z,3.20
2022-10-31T05:46:12.819Z,3.40
2022-10-31T05:49:04.416Z,3.60
2022-10-31T05:51:55.103Z,4.00
2022-10-31T05:54:35.658Z,3.72
2022-10-31T05:57:07.712Z,3.55
2022-10-31T05:59:40.840Z,3.53
2022-10-31T06:02:14.047Z,3.55
2022-10-31T06:05:13.902Z,3.67
2022-10-31T06:07:46.971Z,3.90
2022-10-31T06:10:22.370Z,3.90
2022-10-31T06:12:59.138Z,3.63
2022-10-31T06:15:43.628Z,3.58
2022-10-31T06:18:17.495Z,3.95
2022-10-31T06:20:56.634Z,3.50
2022-10-31T06:23:29.924Z,3.33
2022-10-31T06:26:22.212Z,3.80
2022-10-31T06:28:56.868Z,3.63
2022-10-31T06:31:48.902Z,3.90
2022-10-31T06:34:21.407Z,3.67
2022-10-31T06:36:54.107Z,3.35
2022-10-31T06:39:30.106Z,3.93
2022-10-31T06:42:04.471Z,3.58
2022-10-31T06:44:38.401Z,3.97
2022-10-31T06:47:28.765Z,3.97
2022-10-31T06:50:07.183Z,3.92
2022-10-31T06:52:40.105Z,3.60
2022-10-31T06:55:13.640Z,4.28
2022-10-31T06:57:52.368Z,4.00
2022-10-31T07:00:28.127Z,3.80
2022-10-31T07:03:13.644Z,4.50
2022-10-31T07:05:46.749Z,4.00
2022-10-31T07:08:19.911Z,3.80
2022-10-31T07:10:56.667Z,3.80
2022-10-31T07:13:29.644Z,4.10
2022-10-31T07:16:14.181Z,4.68
2022-10-31T07:18:46.818Z,4.20
2022-10-31T07:21:20.098Z,4.00
2022-10-31T07:23:52.591Z,4.00
2022-10-31T07:26:48.763Z,4.07
2022-10-31T07:29:21.138Z,4.15
2022-10-31T07:31:54.848Z,4.07
2022-10-31T07:34:32.236Z,4.40
2022-10-31T07:37:20.361Z,4.55
2022-10-31T07:39:54.040Z,4.00
2022-10-31T07:42:26.805Z,4.32
2022-10-31T07:44:59.127Z,3.93
2022-10-31T07:47:53.452Z,3.67
2022-10-31T07:50:44.804Z,4.20
2022-10-31T07:53:46.590Z,3.88
2022-10-31T07:56:28.787Z,4.28
2022-10-31T07:59:01.929Z,3.80
2022-10-31T08:01:34.894Z,5.03
2022-10-31T08:04:27.477Z,4.78
2022-10-31T08:07:19.435Z,4.30
2022-10-31T08:09:59.446Z,4.45
2022-10-31T08:12:36.029Z,4.03
2022-10-31T08:15:10.865Z,4.00
2022-10-31T08:17:43.262Z,3.95
2022-10-31T08:20:16.814Z,4.50
2022-10-31T08:23:04.205Z,4.47
2022-10-31T08:25:41.785Z,4.23
2022-10-31T08:28:15.352Z,4.43
2022-10-31T08:30:50.729Z,4.35
2022-10-31T08:33:58.105Z,4.82
2022-10-31T08:36:56.986Z,4.63
2022-10-31T08:39:35.278Z,4.57
2022-10-31T08:42:08.046Z,4.47
2022-10-31T08:44:40.002Z,4.40
2022-10-31T08:47:13.195Z,4.75
2022-10-31T08:49:45.152Z,4.50
2022-10-31T08:52:21.530Z,5.10
2022-10-31T08:54:53.913Z,5.32
2022-10-31T08:57:45.244Z,5.43
2022-10-31T09:00:18.883Z,5.32
2022-10-31T09:03:04.128Z,5.40
2022-10-31T09:05:38.736Z,5.17
2022-10-31T09:08:16.001Z,5.00
2022-10-31T09:10:50.158Z,4.75
2022-10-31T09:13:31.645Z,4.47
2022-10-31T09:16:29.848Z,4.72
2022-10-31T09:19:05.208Z,4.60
2022-10-31T09:21:41.468Z,4.47
2022-10-31T09:24:14.258Z,4.75
2022-10-31T09:26:47.914Z,5.13
2022-10-31T09:29:26.245Z,5.10
2022-10-31T09:32:03.634Z,5.10
2022-10-31T09:34:39.700Z,5.22
2022-10-31T09:37:14.948Z,5.53
2022-10-31T09:39:47.544Z,5.20
2022-10-31T09:42:51.303Z,4.95
2022-10-31T09:45:48.685Z,5.27
2022-10-31T09:49:19.634Z,4.80
2022-10-31T09:52:34.601Z,5.47
2022-10-31T09:55:25.520Z,5.68
2022-10-31T09:58:00.844Z,6.80
2022-10-31T10:00:35.940Z,6.97
2022-10-31T10:03:14.482Z,7.78
2022-10-31T10:06:18.809Z,8.57
2022-10-31T10:09:11.614Z,7.57
2022-10-31T10:13:09.133Z,7.72
2022-10-31T10:16:07.508Z,6.80
2022-10-31T10:19:13.590Z,7.05
2022-10-31T10:22:14.159Z,6.95
2022-10-31T10:25:12.580Z,6.60
2022-10-31T10:28:18.987Z,7.07
2022-10-31T10:31:18.113Z,18.07
2022-10-31T10:34:03.948Z,7.88
2022-10-31T10:36:48.894Z,7.45
2022-10-31T10:39:49.587Z,7.05
2022-10-31T10:42:41.995Z,7.18
2022-10-31T10:45:39.918Z,7.60
2022-10-31T10:49:04.617Z,7.75
2022-10-31T10:52:40.751Z,6.85
2022-10-31T10:55:38.469Z,7.82
2022-10-31T10:58:11.727Z,8.75
2022-10-31T11:00:48.738Z,7.77
2022-10-31T11:03:21.406Z,7.40
2022-10-31T11:05:59.580Z,7.85
2022-10-31T11:08:36.884Z,7.65
2022-10-31T11:11:24.204Z,7.20
2022-10-31T11:14:05.082Z,7.70
2022-10-31T11:16:44.887Z,7.28
2022-10-31T11:19:27.835Z,7.18
2022-10-31T11:22:17.017Z,6.70
2022-10-31T11:24:49.079Z,6.07
2022-10-31T11:27:26.813Z,6.63
2022-10-31T11:30:07.246Z,6.65
2022-10-31T11:32:50.471Z,6.25
2022-10-31T11:35:25.351Z,6.78
2022-10-31T11:38:01.744Z,6.55
2022-10-31T11:40:34.295Z,6.83
2022-10-31T11:43:06.736Z,6.68
2022-10-31T11:45:39.101Z,7.38
2022-10-31T11:48:19.855Z,6.32
2022-10-31T11:50:56.914Z,5.95
2022-10-31T11:53:35.264Z,6.23
2022-10-31T11:56:17.540Z,6.22
2022-10-31T11:58:58.409Z,5.57
2022-10-31T12:01:33.553Z,6.50
2022-10-31T12:04:12.001Z,6.50
2022-10-31T12:06:48.567Z,6.77
2022-10-31T12:09:28.347Z,5.43
2022-10-31T12:12:25.234Z,5.88
2022-10-31T12:15:32.808Z,5.60
2022-10-31T12:18:54.671Z,6.00
2022-10-31T12:22:09.349Z,5.87
2022-10-31T12:24:50.488Z,6.05
2022-10-31T12:27:54.725Z,6.57
2022-10-31T12:30:55.360Z,5.97
2022-10-31T12:33:58.661Z,6.10
2022-10-31T12:37:34.779Z,6.30
2022-10-31T12:40:46.393Z,6.00
2022-10-31T12:43:51.885Z,6.20
2022-10-31T12:46:59.027Z,6.30
2022-10-31T12:50:08.511Z,6.43
2022-10-31T12:53:00.680Z,6.00
2022-10-31T12:55:35.430Z,6.30
2022-10-31T12:58:26.567Z,6.55
2022-10-31T13:01:20.871Z,6.47
2022-10-31T13:04:17.666Z,11.23
2022-10-31T13:06:55.541Z,6.53
2022-10-31T13:09:49.665Z,5.75
2022-10-31T13:15:32.796Z,6.25
2022-10-31T13:18:33.380Z,5.53
2022-10-31T13:21:12.725Z,5.63
2022-10-31T13:23:51.548Z,5.78
2022-10-31T13:26:49.106Z,5.95
2022-10-31T13:29:41.251Z,6.15
2022-10-31T13:32:13.547Z,6.35
2022-10-31T13:34:54.891Z,5.53
2022-10-31T13:37:36.647Z,5.25
2022-10-31T13:40:36.976Z,5.82
2022-10-31T13:43:32.735Z,5.57
2022-10-31T13:46:27.390Z,5.85
2022-10-31T13:49:00.820Z,5.97
2022-10-31T13:51:35.991Z,6.95
2022-10-31T13:54:21.820Z,5.82
2022-10-31T13:56:54.502Z,6.03
2022-10-31T13:59:30.035Z,7.35
2022-10-31T14:02:15.109Z,6.67
2022-10-31T14:04:57.487Z,8.05
2022-10-31T14:07:30.743Z,6.75
2022-10-31T14:10:29.160Z,5.85
2022-10-31T14:13:14.507Z,6.60
2022-10-31T14:16:01.097Z,6.80
2022-10-31T14:18:38.444Z,7.45
2022-10-31T14:21:24.358Z,7.25
2022-10-31T14:23:57.364Z,7.10
2022-10-31T14:26:29.724Z,6.53
2022-10-31T14:29:25.984Z,6.40
2022-10-31T14:32:12.002Z,7.22
2022-10-31T14:35:04.002Z,6.38
2022-10-31T14:38:06.794Z,6.90
2022-10-31T14:41:26.967Z,6.97
2022-10-31T14:44:38.773Z,7.10
2022-10-31T14:47:36.715Z,7.40
2022-10-31T14:50:46.984Z,7.72
2022-10-31T14:53:35.015Z,7.65
2022-10-31T14:56:11.400Z,7.45
2022-10-31T14:58:47.035Z,7.23
2022-10-31T15:01:29.599Z,7.18
2022-10-31T15:04:23.204Z,7.30
2022-10-31T15:07:07.030Z,7.55
2022-10-31T15:09:41.741Z,7.30
2022-10-31T15:12:32.788Z,7.57
2022-10-31T15:15:17.866Z,8.23
2022-10-31T15:18:02.042Z,7.93
2022-10-31T15:20:46.842Z,7.50
2022-10-31T15:23:45.793Z,8.63
2022-10-31T15:26:21.728Z,7.23
2022-10-31T15:29:18.893Z,7.85
2022-10-31T15:32:21.962Z,7.43
2022-10-31T15:34:59.601Z,8.00
2022-10-31T15:37:31.527Z,7.88
2022-10-31T15:40:19.875Z,7.90
2022-10-31T15:43:03.175Z,9.50
2022-10-31T15:45:36.654Z,8.57
2022-10-31T15:48:25.872Z,8.73
2022-10-31T15:50:59.174Z,9.20
2022-10-31T15:53:51.423Z,7.47
2022-10-31T15:56:29.583Z,7.88
2022-10-31T15:59:03.311Z,7.43
2022-10-31T16:01:35.916Z,8.35
2022-10-31T16:04:13.984Z,8.40
2022-10-31T16:06:58.458Z,7.30
2022-10-31T16:09:30.857Z,7.60
2022-10-31T16:12:04.891Z,7.35
2022-10-31T16:14:40.633Z,7.22
2022-10-31T16:17:15.885Z,7.45
2022-10-31T16:20:05.288Z,8.37
2022-10-31T16:22:40.138Z,8.82
2022-10-31T16:25:23.835Z,8.93
2022-10-31T16:28:06.980Z,9.70
2022-10-31T16:30:48.772Z,9.15
2022-10-31T16:33:26.104Z,10.20
2022-10-31T16:36:15.609Z,9.80
2022-10-31T16:38:52.418Z,9.35
2022-10-31T16:41:25.801Z,9.65
2022-10-31T16:43:58.325Z,9.32
2022-10-31T16:46:30.231Z,9.57
2022-10-31T16:49:03.014Z,8.65
2022-10-31T16:51:35.359Z,9.30
2022-10-31T16:54:07.803Z,8.68
2022-10-31T16:56:39.861Z,8.27
2022-10-31T16:59:16.312Z,9.20
2022-10-31T17:01:50.405Z,9.55
2022-10-31T17:04:23.261Z,9.27
2022-10-31T17:06:55.649Z,9.05
2022-10-31T17:09:28.674Z,8.35
2022-10-31T17:12:00.690Z,9.07
2022-10-31T17:14:34.131Z,9.70
2022-10-31T17:17:06.439Z,9.80
2022-10-31T17:19:39.260Z,10.80
2022-10-31T17:22:15.570Z,8.40
2022-10-31T17:24:48.392Z,8.80
2022-10-31T17:27:20.768Z,9.15
2022-10-31T17:29:53.151Z,9.98
2022-10-31T17:32:25.047Z,9.57
2022-10-31T17:34:57.504Z,10.38
2022-10-31T17:37:29.834Z,9.43
2022-10-31T17:40:02.555Z,9.25
2022-10-31T17:42:34.886Z,9.15
2022-10-31T17:45:08.911Z,8.65
2022-10-31T17:47:41.249Z,8.68
2022-10-31T17:50:13.632Z,9.30
2022-10-31T17:52:45.876Z,9.40
2022-10-31T17:55:19.056Z,9.93
2022-10-31T17:57:51.102Z,9.65
2022-10-31T18:00:24.597Z,10.52
2022-10-31T18:02:56.455Z,9.90
2022-10-31T18:05:28.836Z,10.52
2022-10-31T18:08:03.839Z,9.93
2022-10-31T18:10:39.339Z,10.93
2022-10-31T18:13:11.282Z,9.98
2022-10-31T18:15:44.260Z,9.90
2022-10-31T18:18:16.207Z,9.82
2022-10-31T18:20:50.312Z,10.10
2022-10-31T18:23:22.646Z,10.77
2022-10-31T18:25:55.192Z,10.93
2022-10-31T18:28:28.496Z,9.93
2022-10-31T18:31:01.293Z,10.13
2022-10-31T18:33:33.220Z,9.50
2022-10-31T18:36:07.309Z,9.82
2022-10-31T18:38:46.797Z,10.18
2022-10-31T18:41:19.858Z,10.20
2022-10-31T18:43:53.760Z,10.55
2022-10-31T18:46:27.948Z,10.15
2022-10-31T18:49:01.044Z,10.27
2022-10-31T18:51:33.842Z,9.20
2022-10-31T18:54:06.967Z,10.07
2022-10-31T18:56:39.700Z,10.10
2022-10-31T18:59:12.431Z,9.60
2022-10-31T19:01:45.539Z,9.65
2022-10-31T19:04:17.996Z,8.77
2022-10-31T19:06:50.879Z,9.23
2022-10-31T19:09:24.627Z,10.00
2022-10-31T19:11:56.511Z,9.45
2022-10-31T19:14:29.207Z,8.38
2022-10-31T19:17:02.343Z,8.85
2022-10-31T19:19:36.031Z,8.97
2022-10-31T19:22:07.882Z,9.27
2022-10-31T19:24:40.851Z,8.50
2022-10-31T19:27:13.180Z,8.60
2022-10-31T19:29:45.497Z,8.43
2022-10-31T19:32:18.417Z,9.10
2022-10-31T19:34:50.746Z,8.80
2022-10-31T19:37:23.264Z,8.63
2022-10-31T19:39:55.304Z,9.68
2022-10-31T19:42:29.327Z,9.82
2022-10-31T19:45:02.182Z,9.03
2022-10-31T19:47:34.727Z,9.35
2022-10-31T19:50:08.238Z,10.35
2022-10-31T19:52:40.154Z,8.38
2022-10-31T19:55:12.972Z,9.05
2022-10-31T20:00:40.287Z,9.07
2022-10-31T20:03:12.323Z,8.73
2022-10-31T20:05:45.952Z,9.55
2022-10-31T20:08:21.385Z,9.00
2022-10-31T20:10:59.119Z,9.73
2022-10-31T20:13:34.333Z,8.88
2022-10-31T20:16:13.149Z,9.13
2022-10-31T20:18:46.937Z,8.20
2022-10-31T20:21:24.057Z,9.20
2022-10-31T20:23:58.256Z,8.37
2022-10-31T20:26:33.274Z,8.38
2022-10-31T20:29:05.386Z,8.80
2022-10-31T20:31:38.537Z,8.88
2022-10-31T20:34:10.915Z,9.15
2022-10-31T20:36:44.105Z,8.40
2022-10-31T20:39:15.986Z,8.77
2022-10-31T20:41:49.133Z,9.05
2022-10-31T20:44:22.021Z,7.75
2022-10-31T20:46:54.333Z,8.57
2022-10-31T20:49:27.289Z,8.50
2022-10-31T20:51:59.142Z,7.75
2022-10-31T20:54:32.287Z,7.95
2022-10-31T20:57:04.257Z,8.52
2022-10-31T20:59:36.982Z,7.43
2022-10-31T21:02:09.666Z,8.00
2022-10-31T21:04:42.550Z,8.02
2022-10-31T21:07:15.225Z,8.30
2022-10-31T21:09:47.481Z,8.25
2022-10-31T21:12:20.356Z,7.18
2022-10-31T21:14:52.231Z,7.90
2022-10-31T21:17:25.084Z,7.43
2022-10-31T21:19:56.989Z,7.40
2022-10-31T21:22:30.280Z,6.35
2022-10-31T21:25:02.263Z,6.68
2022-10-31T21:27:35.081Z,7.30
2022-10-31T21:30:07.378Z,6.95
2022-10-31T21:32:40.070Z,7.88
2022-10-31T21:35:11.957Z,6.60
2022-10-31T21:37:45.065Z,7.03
2022-10-31T21:40:18.077Z,7.73
2022-10-31T21:42:49.972Z,8.95
2022-10-31T21:45:23.215Z,7.35
2022-10-31T21:47:55.516Z,6.65
2022-10-31T21:50:30.774Z,6.57
2022-10-31T21:53:22.652Z,7.10
2022-10-31T21:55:55.740Z,6.18
2022-10-31T21:58:32.351Z,5.88
2022-10-31T22:01:07.807Z,5.57
2022-10-31T22:03:41.509Z,6.25
2022-10-31T22:06:15.067Z,5.43
2022-10-31T22:08:47.410Z,5.47
2022-10-31T22:11:21.118Z,6.57
2022-10-31T22:13:53.416Z,6.13
2022-10-31T22:16:27.936Z,5.78
2022-10-31T22:19:05.134Z,6.27
2022-10-31T22:21:44.855Z,6.57
2022-10-31T22:24:18.886Z,6.18
2022-10-31T22:26:50.761Z,5.90
2022-10-31T22:29:23.495Z,6.25
2022-10-31T22:31:59.580Z,6.27
2022-10-31T22:34:34.310Z,6.50
2022-10-31T22:37:06.241Z,6.25
2022-10-31T22:39:38.970Z,6.45
2022-10-31T22:42:10.869Z,5.80
2022-10-31T22:44:43.556Z,6.07
2022-10-31T22:47:15.883Z,5.72
2022-10-31T22:49:48.948Z,5.20
2022-10-31T22:52:21.739Z,6.03
2022-10-31T22:54:56.878Z,5.07
2022-10-31T22:57:32.321Z,5.73
2022-10-31T23:00:05.921Z,5.30
2022-10-31T23:02:39.003Z,5.78
2022-10-31T23:05:10.880Z,5.35
2022-10-31T23:07:44.033Z,5.45
2022-10-31T23:10:16.424Z,5.83
2022-10-31T23:13:07.293Z,5.70
2022-10-31T23:15:40.482Z,4.75
2022-10-31T23:18:23.922Z,5.22
2022-10-31T23:21:08.790Z,5.32
2022-10-31T23:23:40.650Z,5.47
2022-10-31T23:26:31.707Z,5.65
2022-10-31T23:29:04.034Z,4.97
2022-10-31T23:31:36.491Z,5.00
2022-10-31T23:34:08.526Z,4.53
2022-10-31T23:36:41.251Z,4.22
2022-10-31T23:39:13.974Z,4.93
2022-10-31T23:41:45.881Z,4.15
2022-10-31T23:44:18.773Z,4.45
2022-10-31T23:46:51.597Z,4.78
2022-10-31T23:49:24.163Z,4.87
2022-10-31T23:51:56.608Z,4.20
2022-10-31T23:54:29.603Z,4.47
2022-10-31T23:57:02.284Z,4.82
2022-10-31T23:59:35.028Z,4.55
